createdAt,value
2023-02-13T00:01:57.323Z,2.55
2023-02-13T00:04:23.908Z,2.60
2023-02-13T00:06:50.391Z,2.28
2023-02-13T00:09:16.871Z,2.20
2023-02-13T00:11:43.326Z,2.25
2023-02-13T00:14:09.909Z,2.15
2023-02-13T00:16:36.568Z,2.47
2023-02-13T00:19:03.215Z,2.25
2023-02-13T00:21:29.682Z,2.00
2023-02-13T00:23:56.097Z,2.00
2023-02-13T00:26:22.563Z,2.20
2023-02-13T00:28:49.436Z,1.75
2023-02-13T00:31:19.889Z,2.30
2023-02-13T00:33:47.043Z,1.92
2023-02-13T00:36:16.611Z,1.80
2023-02-13T00:38:43.866Z,1.48
2023-02-13T00:41:11.072Z,1.80
2023-02-13T00:43:37.966Z,2.05
2023-02-13T00:46:05.114Z,1.88
2023-02-13T00:48:33.692Z,2.03
2023-02-13T00:51:00.961Z,2.00
2023-02-13T00:53:27.937Z,2.30
2023-02-13T00:55:54.600Z,1.88
2023-02-13T00:58:21.713Z,2.25
2023-02-13T01:00:48.304Z,1.98
2023-02-13T01:03:18.361Z,2.55
2023-02-13T01:05:45.689Z,2.95
2023-02-13T01:08:15.734Z,2.67
2023-02-13T01:10:43.687Z,2.80
2023-02-13T01:13:10.818Z,2.80
2023-02-13T01:15:40.852Z,2.60
2023-02-13T01:18:07.895Z,2.67
2023-02-13T01:20:34.439Z,2.88
2023-02-13T01:23:00.916Z,2.53
2023-02-13T01:25:28.302Z,3.13
2023-02-13T01:27:54.820Z,3.72
2023-02-13T01:30:21.265Z,2.95
2023-02-13T01:32:48.079Z,3.30
2023-02-13T01:35:15.631Z,3.17
2023-02-13T01:37:43.191Z,3.40
2023-02-13T01:40:12.880Z,3.70
2023-02-13T01:42:39.385Z,3.40
2023-02-13T01:45:27.252Z,3.65
2023-02-13T01:48:31.488Z,3.30
2023-02-13T01:51:02.893Z,4.30
2023-02-13T01:53:53.617Z,3.08
2023-02-13T01:56:23.022Z,3.53
2023-02-13T01:58:53.677Z,3.25
2023-02-13T02:01:21.973Z,3.30
2023-02-13T02:03:55.423Z,3.97
2023-02-13T02:06:28.431Z,3.80
2023-02-13T02:08:57.750Z,3.60
2023-02-13T02:11:36.510Z,3.92
2023-02-13T02:14:03.273Z,4.50
2023-02-13T02:16:31.423Z,3.80
2023-02-13T02:18:57.891Z,3.85
2023-02-13T02:21:39.707Z,4.03
2023-02-13T02:24:12.360Z,3.55
2023-02-13T02:27:16.466Z,4.03
2023-02-13T02:30:01.696Z,3.65
2023-02-13T02:32:40.760Z,4.05
2023-02-13T02:35:28.303Z,4.90
2023-02-13T02:38:08.468Z,3.97
2023-02-13T02:40:43.946Z,3.67
2023-02-13T02:43:30.542Z,3.22
2023-02-13T02:46:12.086Z,3.45
2023-02-13T02:49:07.973Z,3.47
2023-02-13T02:51:55.659Z,3.50
2023-02-13T02:54:58.912Z,3.72
2023-02-13T02:57:51.062Z,3.65
2023-02-13T03:00:39.389Z,3.20
2023-02-13T03:03:33.048Z,4.35
2023-02-13T03:06:11.124Z,3.72
2023-02-13T03:09:09.245Z,3.90
2023-02-13T03:12:11.408Z,3.75
2023-02-13T03:14:37.992Z,3.85
2023-02-13T03:17:24.792Z,4.03
2023-02-13T03:20:19.239Z,4.18
2023-02-13T03:22:54.692Z,4.40
2023-02-13T03:25:34.569Z,4.35
2023-02-13T03:28:41.414Z,4.07
2023-02-13T03:31:13.604Z,4.57
2023-02-13T03:34:06.007Z,4.55
2023-02-13T03:37:13.112Z,4.88
2023-02-13T03:39:56.543Z,3.90
2023-02-13T03:42:35.540Z,4.00
2023-02-13T03:45:57.118Z,3.92
2023-02-13T03:48:47.923Z,4.32
2023-02-13T03:51:22.531Z,3.92
2023-02-13T03:53:55.088Z,4.13
2023-02-13T03:56:41.686Z,4.10
2023-02-13T03:59:17.089Z,4.00
2023-02-13T04:01:54.650Z,3.53
2023-02-13T04:04:48.866Z,4.47
2023-02-13T04:10:03.043Z,4.20
2023-02-13T04:12:38.940Z,3.38
2023-02-13T04:15:31.549Z,3.65
2023-02-13T04:18:09.635Z,3.58
2023-02-13T04:20:38.305Z,3.70
2023-02-13T04:23:07.332Z,3.30
2023-02-13T04:25:35.305Z,3.33
2023-02-13T04:28:02.265Z,3.20
2023-02-13T04:30:28.772Z,3.58
2023-02-13T04:32:55.255Z,3.17
2023-02-13T04:35:22.212Z,2.92
2023-02-13T04:37:48.669Z,3.25
2023-02-13T04:40:15.269Z,3.33
2023-02-13T04:42:41.852Z,2.53
2023-02-13T04:45:09.165Z,2.75
2023-02-13T04:47:35.706Z,2.75
2023-02-13T04:50:02.161Z,3.20
2023-02-13T04:52:28.791Z,2.70
2023-02-13T04:54:55.273Z,2.67
2023-02-13T04:57:21.689Z,3.20
2023-02-13T04:59:48.093Z,3.40
2023-02-13T05:02:14.553Z,3.67
2023-02-13T05:04:41.071Z,3.55
2023-02-13T05:07:08.154Z,2.63
2023-02-13T05:09:34.600Z,3.45
2023-02-13T05:12:01.127Z,3.30
2023-02-13T05:14:27.522Z,3.65
2023-02-13T05:16:53.943Z,4.40
2023-02-13T05:19:20.365Z,3.78
2023-02-13T05:22:06.102Z,3.65
2023-02-13T05:24:32.557Z,3.47
2023-02-13T05:26:58.988Z,4.57
2023-02-13T05:29:25.467Z,3.75
2023-02-13T05:31:54.173Z,3.78
2023-02-13T05:34:22.048Z,3.63
2023-02-13T05:36:48.663Z,3.97
2023-02-13T05:39:15.762Z,4.05
2023-02-13T05:41:43.711Z,4.10
2023-02-13T05:44:10.603Z,4.07
2023-02-13T05:46:39.369Z,4.50
2023-02-13T05:49:06.589Z,4.70
2023-02-13T05:51:33.079Z,4.35
2023-02-13T05:53:59.561Z,4.65
2023-02-13T05:56:25.982Z,3.92
2023-02-13T05:58:53.943Z,3.85
2023-02-13T06:01:20.787Z,4.47
2023-02-13T06:03:47.858Z,4.38
2023-02-13T06:06:14.910Z,4.47
2023-02-13T06:08:41.445Z,4.82
2023-02-13T06:11:08.788Z,4.65
2023-02-13T06:13:35.198Z,4.53
2023-02-13T06:16:01.739Z,4.82
2023-02-13T06:18:28.225Z,5.13
2023-02-13T06:20:54.661Z,6.45
2023-02-13T06:23:21.324Z,5.18
2023-02-13T06:25:47.956Z,4.95
2023-02-13T06:28:14.416Z,5.72
2023-02-13T06:30:40.922Z,4.38
2023-02-13T06:33:07.398Z,4.10
2023-02-13T06:35:33.843Z,4.13
2023-02-13T06:38:00.398Z,4.32
2023-02-13T06:40:26.922Z,3.97
2023-02-13T06:42:53.479Z,4.50
2023-02-13T06:45:19.913Z,4.90
2023-02-13T06:47:48.285Z,4.18
2023-02-13T06:50:16.465Z,6.35
2023-02-13T06:52:51.784Z,5.53
2023-02-13T06:55:18.808Z,4.88
2023-02-13T06:57:45.704Z,5.10
2023-02-13T07:00:13.968Z,5.22
2023-02-13T07:02:41.257Z,5.05
2023-02-13T07:05:08.081Z,5.10
2023-02-13T07:07:36.593Z,5.35
2023-02-13T07:10:03.314Z,4.95
2023-02-13T07:12:29.748Z,4.55
2023-02-13T07:14:56.250Z,4.55
2023-02-13T07:17:22.755Z,5.38
2023-02-13T07:19:50.551Z,5.07
2023-02-13T07:22:17.081Z,4.95
2023-02-13T07:24:43.891Z,4.95
2023-02-13T07:27:10.879Z,4.75
2023-02-13T07:29:37.393Z,5.47
2023-02-13T07:32:04.100Z,5.03
2023-02-13T07:34:31.866Z,4.97
2023-02-13T07:36:58.484Z,4.82
2023-02-13T07:39:25.118Z,5.00
2023-02-13T07:41:52.494Z,4.93
2023-02-13T07:46:57.805Z,5.55
2023-02-13T07:49:25.215Z,4.30
2023-02-13T07:51:52.006Z,5.32
2023-02-13T07:54:18.493Z,5.38
2023-02-13T07:56:45.015Z,4.63
2023-02-13T07:59:11.668Z,4.97
2023-02-13T08:01:38.592Z,4.28
2023-02-13T08:04:05.217Z,4.47
2023-02-13T08:06:31.698Z,4.18
2023-02-13T08:09:17.007Z,4.47
2023-02-13T08:11:55.899Z,5.03
2023-02-13T08:14:27.515Z,4.55
2023-02-13T08:16:54.630Z,4.38
2023-02-13T08:19:21.258Z,4.40
2023-02-13T08:21:47.692Z,4.63
2023-02-13T08:24:14.129Z,4.53
2023-02-13T08:26:40.537Z,4.75
2023-02-13T08:29:08.109Z,4.22
2023-02-13T08:31:34.801Z,4.03
2023-02-13T08:34:01.408Z,5.18
2023-02-13T08:36:28.173Z,4.95
2023-02-13T08:38:54.836Z,4.57
2023-02-13T08:41:22.311Z,4.80
2023-02-13T08:43:50.155Z,4.85
2023-02-13T08:46:18.022Z,4.60
2023-02-13T08:48:44.601Z,3.85
2023-02-13T08:51:13.403Z,4.47
2023-02-13T08:53:40.015Z,3.70
2023-02-13T08:56:06.805Z,3.55
2023-02-13T08:58:33.463Z,3.97
2023-02-13T09:00:59.906Z,3.85
2023-02-13T09:03:26.513Z,3.10
2023-02-13T09:05:52.970Z,2.88
2023-02-13T09:08:19.526Z,3.40
2023-02-13T09:10:46.478Z,3.58
2023-02-13T09:13:12.967Z,3.65
2023-02-13T09:15:40.788Z,3.00
2023-02-13T09:18:08.016Z,3.03
2023-02-13T09:20:36.093Z,4.15
2023-02-13T09:23:03.831Z,3.33
2023-02-13T09:25:30.391Z,2.65
2023-02-13T09:27:56.913Z,2.78
2023-02-13T09:30:23.892Z,2.65
2023-02-13T09:32:52.288Z,2.53
2023-02-13T09:35:20.275Z,2.58
2023-02-13T09:37:47.089Z,2.35
2023-02-13T09:40:37.100Z,2.50
2023-02-13T09:43:44.849Z,2.60
2023-02-13T09:46:16.165Z,2.60
2023-02-13T09:48:46.281Z,2.53
2023-02-13T09:51:19.286Z,2.60
2023-02-13T09:54:06.706Z,2.60
2023-02-13T09:56:50.387Z,2.60
2023-02-13T09:59:41.038Z,2.63
2023-02-13T10:02:35.904Z,3.08
2023-02-13T10:05:31.262Z,3.13
2023-02-13T10:08:25.262Z,2.85
2023-02-13T10:10:58.021Z,2.50
2023-02-13T10:13:50.654Z,2.80
2023-02-13T10:16:21.534Z,3.08
2023-02-13T10:19:15.989Z,2.70
2023-02-13T10:21:57.620Z,2.95
2023-02-13T10:24:57.420Z,2.75
2023-02-13T10:27:26.453Z,2.90
2023-02-13T10:30:14.636Z,3.20
2023-02-13T10:33:18.842Z,3.78
2023-02-13T10:36:10.068Z,3.15
2023-02-13T10:38:58.090Z,3.08
2023-02-13T10:41:26.435Z,3.30
2023-02-13T10:44:13.761Z,3.50
2023-02-13T10:47:03.956Z,5.18
2023-02-13T10:49:42.557Z,3.78
2023-02-13T10:52:33.054Z,3.72
2023-02-13T10:55:33.575Z,3.63
2023-02-13T10:58:09.754Z,7.18
2023-02-13T11:03:28.223Z,3.65
2023-02-13T11:05:57.489Z,3.38
2023-02-13T11:08:33.670Z,3.33
2023-02-13T11:11:00.814Z,3.80
2023-02-13T11:13:30.118Z,4.28
2023-02-13T11:16:10.308Z,3.75
2023-02-13T11:18:39.033Z,3.28
2023-02-13T11:21:19.878Z,3.50
2023-02-13T11:23:54.625Z,3.45
2023-02-13T11:26:24.366Z,3.55
2023-02-13T11:28:55.768Z,3.67
2023-02-13T11:31:24.028Z,4.03
2023-02-13T11:33:50.572Z,3.80
2023-02-13T11:36:30.018Z,3.53
2023-02-13T11:39:21.508Z,3.22
2023-02-13T11:41:52.354Z,3.20
2023-02-13T11:44:32.481Z,3.30
2023-02-13T11:47:01.289Z,3.55
2023-02-13T11:49:32.675Z,3.90
2023-02-13T11:52:27.873Z,4.20
2023-02-13T11:55:05.554Z,3.75
2023-02-13T11:57:37.434Z,6.25
2023-02-13T12:00:31.160Z,3.50
2023-02-13T12:05:27.665Z,4.05
2023-02-13T12:08:01.979Z,4.10
2023-02-13T12:10:31.778Z,3.85
2023-02-13T12:13:07.276Z,4.20
2023-02-13T12:15:36.553Z,3.28
2023-02-13T12:18:08.868Z,3.40
2023-02-13T12:20:51.297Z,3.87
2023-02-13T12:23:49.269Z,3.85
2023-02-13T12:26:31.713Z,3.92
2023-02-13T12:29:00.903Z,4.55
2023-02-13T12:31:34.197Z,4.65
2023-02-13T12:34:30.892Z,3.85
2023-02-13T12:37:19.057Z,5.13
2023-02-13T12:40:02.704Z,4.30
2023-02-13T12:42:54.196Z,4.28
2023-02-13T12:45:43.632Z,4.15
2023-02-13T12:48:39.092Z,4.50
2023-02-13T12:51:17.777Z,4.40
2023-02-13T12:54:15.799Z,3.80
2023-02-13T12:57:11.594Z,4.53
2023-02-13T12:59:54.302Z,4.03
2023-02-13T13:02:48.411Z,3.90
2023-02-13T13:05:30.131Z,4.25
2023-02-13T13:08:29.198Z,4.07
2023-02-13T13:10:58.699Z,3.85
2023-02-13T13:13:52.821Z,4.10
2023-02-13T13:16:38.523Z,4.88
2023-02-13T13:19:20.377Z,4.18
2023-02-13T13:22:05.462Z,3.60
2023-02-13T13:24:49.136Z,3.88
2023-02-13T13:27:37.895Z,3.80
2023-02-13T13:30:14.434Z,4.07
2023-02-13T13:32:43.280Z,3.70
2023-02-13T13:35:15.575Z,4.13
2023-02-13T13:38:25.428Z,4.13
2023-02-13T13:41:07.999Z,3.67
2023-02-13T13:43:53.021Z,3.60
2023-02-13T13:46:38.304Z,3.60
2023-02-13T13:49:26.404Z,3.75
2023-02-13T13:51:52.837Z,3.45
2023-02-13T13:54:22.988Z,3.88
2023-02-13T13:57:02.166Z,3.83
2023-02-13T13:59:34.611Z,3.75
2023-02-13T14:02:22.031Z,3.40
2023-02-13T14:05:10.963Z,3.33
2023-02-13T14:07:41.413Z,3.90
2023-02-13T14:10:26.346Z,3.63
2023-02-13T14:12:55.571Z,3.60
2023-02-13T14:15:34.277Z,3.60
2023-02-13T14:18:26.745Z,3.88
2023-02-13T14:20:58.508Z,4.25
2023-02-13T14:23:30.863Z,3.90
2023-02-13T14:26:18.091Z,4.25
2023-02-13T14:28:51.212Z,4.93
2023-02-13T14:31:28.538Z,4.28
2023-02-13T14:34:00.622Z,4.13
2023-02-13T14:36:33.703Z,4.97
2023-02-13T14:39:08.165Z,4.70
2023-02-13T14:41:50.768Z,4.25
2023-02-13T14:44:22.810Z,4.00
2023-02-13T14:46:52.850Z,3.78
2023-02-13T14:49:33.828Z,4.32
2023-02-13T14:52:05.244Z,4.20
2023-02-13T14:54:57.795Z,3.78
2023-02-13T14:57:34.506Z,3.88
2023-02-13T15:00:24.816Z,4.05
2023-02-13T15:03:01.479Z,3.90
2023-02-13T15:05:33.895Z,3.90
2023-02-13T15:08:16.277Z,3.78
2023-02-13T15:10:47.052Z,3.97
2023-02-13T15:13:37.445Z,3.92
2023-02-13T15:16:09.364Z,4.15
2023-02-13T15:18:46.006Z,4.30
2023-02-13T15:21:17.414Z,3.50
2023-02-13T15:23:49.494Z,3.42
2023-02-13T15:26:24.763Z,3.15
2023-02-13T15:29:05.853Z,3.72
2023-02-13T15:31:34.858Z,3.95
2023-02-13T15:34:01.602Z,3.60
2023-02-13T15:36:40.645Z,3.95
2023-02-13T15:39:10.416Z,4.00
2023-02-13T15:41:44.239Z,3.97
2023-02-13T15:44:18.952Z,5.20
2023-02-13T15:46:51.442Z,5.22
2023-02-13T15:49:21.841Z,6.13
2023-02-13T15:51:50.538Z,6.18
2023-02-13T15:54:28.605Z,5.40
2023-02-13T15:56:59.152Z,5.22
2023-02-13T15:59:36.400Z,5.25
2023-02-13T16:02:08.141Z,7.20
2023-02-13T16:04:35.596Z,9.68
2023-02-13T16:07:02.109Z,6.68
2023-02-13T16:09:35.764Z,5.80
2023-02-13T16:14:30.401Z,5.40
2023-02-13T16:17:06.146Z,5.72
2023-02-13T16:19:50.752Z,5.50
2023-02-13T16:22:30.274Z,5.25
2023-02-13T16:25:11.780Z,5.97
2023-02-13T16:27:50.452Z,5.28
2023-02-13T16:30:25.199Z,5.55
2023-02-13T16:32:51.926Z,5.72
2023-02-13T16:35:30.380Z,5.95
2023-02-13T16:38:01.743Z,6.28
2023-02-13T16:40:31.192Z,6.55
2023-02-13T16:43:35.457Z,6.00
2023-02-13T16:46:19.327Z,6.35
2023-02-13T16:48:48.178Z,5.97
2023-02-13T16:51:16.759Z,5.65
2023-02-13T16:53:43.259Z,5.32
2023-02-13T16:56:11.409Z,5.22
2023-02-13T16:58:37.891Z,6.30
2023-02-13T17:01:05.368Z,6.30
2023-02-13T17:03:33.025Z,4.72
2023-02-13T17:06:03.390Z,6.15
2023-02-13T17:08:31.695Z,6.05
2023-02-13T17:11:03.782Z,6.10
2023-02-13T17:13:30.486Z,6.13
2023-02-13T17:15:58.329Z,7.85
2023-02-13T17:18:24.823Z,7.57
2023-02-13T17:20:51.342Z,8.88
2023-02-13T17:23:22.806Z,7.63
2023-02-13T17:25:51.403Z,6.38
2023-02-13T17:28:29.236Z,5.65
2023-02-13T17:30:58.481Z,6.50
2023-02-13T17:33:30.544Z,6.72
2023-02-13T17:35:57.204Z,7.10
2023-02-13T17:38:24.285Z,6.07
2023-02-13T17:40:51.845Z,7.07
2023-02-13T17:43:20.763Z,7.20
2023-02-13T17:45:48.400Z,6.72
2023-02-13T17:48:15.372Z,6.90
2023-02-13T17:50:41.908Z,7.45
2023-02-13T17:53:26.304Z,7.38
2023-02-13T17:55:53.105Z,7.07
2023-02-13T17:58:19.585Z,6.53
2023-02-13T18:00:46.339Z,9.13
2023-02-13T18:03:12.810Z,8.45
2023-02-13T18:05:39.821Z,9.05
2023-02-13T18:08:06.329Z,8.35
2023-02-13T18:10:35.918Z,7.68
2023-02-13T18:13:05.983Z,8.40
2023-02-13T18:15:40.337Z,11.52
2023-02-13T18:18:07.034Z,10.40
2023-02-13T18:20:33.788Z,9.48
2023-02-13T18:23:00.231Z,9.80
2023-02-13T18:25:26.889Z,10.15
2023-02-13T18:27:55.248Z,9.82
2023-02-13T18:30:21.952Z,9.27
2023-02-13T18:32:53.460Z,9.63
2023-02-13T18:35:20.336Z,11.20
2023-02-13T18:37:46.757Z,11.80
2023-02-13T18:40:15.079Z,9.82
2023-02-13T18:42:41.630Z,8.90
2023-02-13T18:45:08.737Z,8.98
2023-02-13T18:47:36.746Z,8.13
2023-02-13T18:50:03.913Z,9.75
2023-02-13T18:52:30.339Z,9.65
2023-02-13T18:54:56.832Z,9.43
2023-02-13T18:57:23.280Z,8.80
2023-02-13T18:59:49.744Z,7.65
2023-02-13T19:02:16.215Z,8.32
2023-02-13T19:04:42.665Z,8.68
2023-02-13T19:07:09.098Z,9.32
2023-02-13T19:09:40.004Z,8.45
2023-02-13T19:12:07.679Z,8.85
2023-02-13T19:14:34.237Z,8.60
2023-02-13T19:17:00.823Z,8.82
2023-02-13T19:19:27.565Z,8.00
2023-02-13T19:21:54.046Z,7.82
2023-02-13T19:24:23.277Z,8.32
2023-02-13T19:26:50.917Z,8.52
2023-02-13T19:29:17.370Z,7.72
2023-02-13T19:31:43.954Z,7.50
2023-02-13T19:34:10.461Z,7.70
2023-02-13T19:36:36.982Z,8.02
2023-02-13T19:39:06.683Z,8.80
2023-02-13T19:41:33.322Z,9.38
2023-02-13T19:44:01.086Z,7.72
2023-02-13T19:46:30.190Z,6.97
2023-02-13T19:48:57.488Z,7.57
2023-02-13T19:51:27.786Z,7.65
2023-02-13T19:53:58.636Z,7.50
2023-02-13T19:56:27.413Z,6.88
2023-02-13T19:58:53.939Z,7.00
2023-02-13T20:01:23.271Z,6.97
2023-02-13T20:03:50.718Z,7.00
2023-02-13T20:06:25.825Z,6.82
2023-02-13T20:08:53.063Z,7.57
2023-02-13T20:11:22.295Z,7.28
2023-02-13T20:13:53.048Z,7.70
2023-02-13T20:16:19.482Z,9.95
2023-02-13T20:18:46.047Z,8.85
2023-02-13T20:21:15.053Z,9.60
2023-02-13T20:23:42.267Z,10.30
2023-02-13T20:26:13.719Z,9.43
2023-02-13T20:28:41.923Z,8.80
2023-02-13T20:31:20.282Z,9.70
2023-02-13T20:33:47.949Z,9.65
2023-02-13T20:36:23.274Z,9.80
2023-02-13T20:38:52.892Z,9.35
2023-02-13T20:41:22.309Z,8.85
2023-02-13T20:43:49.051Z,8.88
2023-02-13T20:46:16.562Z,9.50
2023-02-13T20:48:45.858Z,9.50
2023-02-13T20:51:14.935Z,8.73
2023-02-13T20:53:42.354Z,9.00
2023-02-13T20:56:11.731Z,9.25
2023-02-13T20:58:38.997Z,9.68
2023-02-13T21:01:23.177Z,12.43
2023-02-13T21:03:53.759Z,13.55
2023-02-13T21:06:26.296Z,12.07
2023-02-13T21:08:53.263Z,11.15
2023-02-13T21:11:21.146Z,9.75
2023-02-13T21:13:48.510Z,9.10
2023-02-13T21:16:18.677Z,9.18
2023-02-13T21:18:48.740Z,9.30
2023-02-13T21:21:15.677Z,8.75
2023-02-13T21:23:42.305Z,10.93
2023-02-13T21:26:12.796Z,10.75
2023-02-13T21:28:40.145Z,12.73
2023-02-13T21:31:11.510Z,10.48
2023-02-13T21:33:38.042Z,9.38
2023-02-13T21:36:08.509Z,7.57
2023-02-13T21:38:35.872Z,7.35
2023-02-13T21:41:09.305Z,7.45
2023-02-13T21:43:37.852Z,8.95
2023-02-13T21:46:12.169Z,8.15
2023-02-13T21:48:40.209Z,8.15
2023-02-13T21:51:12.464Z,9.05
2023-02-13T21:53:39.580Z,9.02
2023-02-13T21:56:09.334Z,7.72
2023-02-13T21:58:37.194Z,7.85
2023-02-13T22:01:20.438Z,7.93
2023-02-13T22:03:51.741Z,6.82
2023-02-13T22:06:21.970Z,9.40
2023-02-13T22:08:49.207Z,11.85
2023-02-13T22:11:19.042Z,11.45
2023-02-13T22:13:45.485Z,14.00
2023-02-13T22:16:13.871Z,13.35
2023-02-13T22:18:45.169Z,14.55
2023-02-13T22:21:15.232Z,12.32
2023-02-13T22:23:43.616Z,14.32
2023-02-13T22:26:20.865Z,14.27
2023-02-13T22:28:47.580Z,13.32
2023-02-13T22:31:15.082Z,13.68
2023-02-13T22:33:42.995Z,12.70
2023-02-13T22:36:12.287Z,8.10
2023-02-13T22:38:40.492Z,8.23
2023-02-13T22:41:13.161Z,9.07
2023-02-13T22:43:41.219Z,9.07
2023-02-13T22:46:12.551Z,10.32
2023-02-13T22:48:40.777Z,9.80
2023-02-13T22:51:10.013Z,9.52
2023-02-13T22:53:38.255Z,11.13
2023-02-13T22:56:06.654Z,11.70
2023-02-13T22:58:33.674Z,14.43
2023-02-13T23:01:00.688Z,13.43
2023-02-13T23:03:27.658Z,13.80
2023-02-13T23:05:54.107Z,13.48
2023-02-13T23:08:20.574Z,13.88
2023-02-13T23:11:07.172Z,13.50
2023-02-13T23:13:33.717Z,12.77
2023-02-13T23:16:00.749Z,12.18
2023-02-13T23:18:27.451Z,11.13
2023-02-13T23:20:53.875Z,9.63
2023-02-13T23:23:21.209Z,10.35
2023-02-13T23:25:47.658Z,9.55
2023-02-13T23:28:14.081Z,9.30
2023-02-13T23:30:40.564Z,12.57
2023-02-13T23:33:07.017Z,12.55
2023-02-13T23:35:33.454Z,11.50
2023-02-13T23:37:59.982Z,12.80
2023-02-13T23:40:26.626Z,12.80
2023-02-13T23:42:56.126Z,12.48
2023-02-13T23:45:22.532Z,11.65
2023-02-13T23:47:49.102Z,9.80
2023-02-13T23:50:15.642Z,8.38
2023-02-13T23:52:42.087Z,8.75
2023-02-13T23:55:08.567Z,7.25
2023-02-13T23:57:40.915Z,6.85
